createdAt,value
2018-05-03T00:00:44.780Z,17.33
2018-05-03T00:03:14.417Z,18.00
2018-05-03T00:05:44.046Z,16.50
2018-05-03T00:08:13.672Z,17.60
2018-05-03T00:10:43.310Z,17.33
2018-05-03T00:13:12.987Z,17.20
2018-05-03T00:15:42.616Z,17.83
2018-05-03T00:18:12.249Z,16.60
2018-05-03T00:20:41.885Z,16.93
2018-05-03T00:23:11.515Z,18.17
2018-05-03T00:25:41.196Z,17.20
2018-05-03T00:28:10.840Z,17.50
2018-05-03T00:30:40.497Z,17.53
2018-05-03T00:33:10.137Z,18.07
2018-05-03T00:35:39.766Z,18.43
2018-05-03T00:38:09.476Z,16.97
2018-05-03T00:40:39.095Z,18.37
2018-05-03T00:43:08.735Z,17.97
2018-05-03T00:45:38.086Z,18.73
2018-05-03T00:48:07.725Z,19.40
2018-05-03T00:50:37.406Z,17.43
2018-05-03T00:53:07.035Z,18.43
2018-05-03T00:55:36.664Z,19.97
2018-05-03T00:58:06.304Z,19.23
2018-05-03T01:00:36.028Z,18.00
2018-05-03T01:03:05.086Z,20.87
2018-05-03T01:05:34.712Z,20.03
2018-05-03T01:08:04.377Z,20.27
2018-05-03T01:10:34.018Z,20.93
2018-05-03T01:13:03.687Z,20.67
2018-05-03T01:15:33.373Z,21.23
2018-05-03T01:18:03.006Z,21.73
2018-05-03T01:20:32.392Z,21.97
2018-05-03T01:23:02.040Z,19.77
2018-05-03T01:25:31.683Z,20.07
2018-05-03T01:28:01.370Z,21.83
2018-05-03T01:30:31.005Z,21.63
2018-05-03T01:33:00.641Z,22.10
2018-05-03T01:35:41.149Z,20.63
2018-05-03T01:38:10.509Z,21.30
2018-05-03T01:40:40.192Z,21.80
2018-05-03T01:43:09.835Z,21.50
2018-05-03T01:45:39.663Z,21.87
2018-05-03T01:48:09.293Z,20.93
2018-05-03T01:50:38.928Z,20.73
2018-05-03T01:53:08.591Z,20.47
2018-05-03T01:55:38.220Z,21.87
2018-05-03T01:58:07.856Z,19.97
2018-05-03T02:00:37.212Z,19.67
2018-05-03T02:03:06.598Z,20.07
2018-05-03T02:05:36.271Z,18.83
2018-05-03T02:08:05.921Z,19.20
2018-05-03T02:10:35.545Z,19.40
2018-05-03T02:13:05.180Z,18.57
2018-05-03T02:15:34.815Z,17.97
2018-05-03T02:18:04.495Z,18.13
2018-05-03T02:20:34.119Z,17.77
2018-05-03T02:23:03.750Z,19.33
2018-05-03T02:25:33.382Z,18.33
2018-05-03T02:28:03.027Z,18.00
2018-05-03T02:30:32.791Z,17.93
2018-05-03T02:33:02.444Z,18.17
2018-05-03T02:35:32.088Z,17.77
2018-05-03T02:38:01.708Z,18.60
2018-05-03T02:40:31.379Z,18.70
2018-05-03T02:43:01.061Z,17.70
2018-05-03T02:45:30.694Z,19.27
2018-05-03T02:48:00.336Z,19.63
2018-05-03T02:50:29.721Z,21.53
2018-05-03T02:52:59.346Z,20.27
2018-05-03T02:55:29.030Z,20.67
2018-05-03T02:58:15.228Z,19.23
2018-05-03T03:04:22.459Z,20.57
2018-05-03T03:07:08.504Z,21.73
2018-05-03T03:13:34.452Z,20.00
2018-05-03T03:16:20.526Z,22.30
2018-05-03T03:19:06.527Z,22.37
2018-05-03T03:24:59.827Z,21.67
2018-05-03T03:27:56.812Z,21.83
2018-05-03T03:30:44.388Z,22.47
2018-05-03T03:33:24.963Z,21.87
2018-05-03T03:36:05.498Z,21.20
2018-05-03T03:38:46.056Z,22.40
2018-05-03T03:41:26.585Z,21.67
2018-05-03T03:44:07.129Z,21.80
2018-05-03T03:46:36.485Z,22.20
2018-05-03T03:49:05.879Z,23.67
2018-05-03T03:51:35.517Z,23.53
2018-05-03T03:54:05.141Z,23.30
2018-05-03T03:56:34.771Z,22.63
2018-05-03T03:59:04.417Z,22.67
2018-05-03T04:01:34.106Z,22.43
2018-05-03T04:04:03.731Z,22.70
2018-05-03T04:06:33.369Z,22.80
2018-05-03T04:09:02.993Z,21.23
2018-05-03T04:11:32.620Z,20.43
2018-05-03T04:14:02.311Z,21.83
2018-05-03T04:16:31.938Z,21.40
2018-05-03T04:19:12.942Z,20.87
2018-05-03T04:21:53.636Z,19.63
2018-05-03T04:24:34.211Z,20.10
2018-05-03T04:27:03.583Z,20.60
2018-05-03T04:29:33.216Z,18.97
2018-05-03T04:32:02.862Z,18.20
2018-05-03T04:34:32.497Z,20.03
2018-05-03T04:37:02.398Z,19.77
2018-05-03T04:39:32.019Z,18.40
2018-05-03T04:42:01.669Z,19.40
2018-05-03T04:44:31.301Z,18.77
2018-05-03T04:47:00.936Z,17.37
2018-05-03T04:49:30.620Z,18.00
2018-05-03T04:52:00.255Z,17.30
2018-05-03T04:54:29.899Z,16.80
2018-05-03T04:56:59.537Z,17.87
2018-05-03T04:59:29.169Z,17.57
2018-05-03T05:01:58.857Z,15.70
2018-05-03T05:04:28.493Z,16.27
2018-05-03T05:06:58.159Z,16.23
2018-05-03T05:09:27.794Z,15.87
2018-05-03T05:11:57.435Z,15.93
2018-05-03T05:14:27.113Z,16.60
2018-05-03T05:16:56.749Z,16.10
2018-05-03T05:19:26.393Z,15.27
2018-05-03T05:21:56.025Z,15.33
2018-05-03T05:24:25.650Z,14.20
2018-05-03T05:26:55.919Z,14.20
2018-05-03T05:29:26.152Z,14.57
2018-05-03T05:31:56.412Z,13.93
2018-05-03T05:34:26.634Z,14.13
2018-05-03T05:36:56.980Z,14.15
2018-05-03T05:39:27.207Z,13.90
2018-05-03T05:41:57.468Z,13.52
2018-05-03T05:44:27.683Z,14.10
2018-05-03T05:46:57.939Z,13.98
2018-05-03T05:49:28.165Z,15.52
2018-05-03T05:51:58.438Z,15.85
2018-05-03T05:54:28.702Z,15.45
2018-05-03T05:56:58.339Z,15.17
2018-05-03T05:59:27.734Z,15.57
2018-05-03T06:01:57.374Z,15.43
2018-05-03T06:04:27.005Z,14.57
2018-05-03T06:06:56.400Z,15.43
2018-05-03T06:09:25.774Z,15.23
2018-05-03T06:11:55.406Z,15.13
2018-05-03T06:14:25.035Z,14.40
2018-05-03T06:16:54.655Z,14.50
2018-05-03T06:19:24.356Z,14.90
2018-05-03T06:21:53.992Z,14.60
2018-05-03T06:24:23.397Z,14.70
2018-05-03T06:26:53.621Z,13.73
2018-05-03T06:29:23.841Z,14.32
2018-05-03T06:31:53.513Z,13.70
2018-05-03T06:34:23.187Z,13.77
2018-05-03T06:36:53.423Z,13.68
2018-05-03T06:39:23.646Z,14.52
2018-05-03T06:41:53.883Z,14.75
2018-05-03T06:44:24.148Z,14.27
2018-05-03T06:46:53.504Z,14.97
2018-05-03T06:49:23.149Z,15.00
2018-05-03T06:51:53.403Z,14.90
2018-05-03T06:54:23.626Z,14.20
2018-05-03T06:56:53.897Z,14.00
2018-05-03T06:59:24.126Z,12.60
2018-05-03T07:01:54.383Z,13.25
2018-05-03T07:04:24.636Z,12.85
2018-05-03T07:06:55.111Z,13.32
2018-05-03T07:09:25.334Z,13.32
2018-05-03T07:11:55.593Z,13.40
2018-05-03T07:14:25.837Z,13.10
2018-05-03T07:16:56.045Z,13.60
2018-05-03T07:19:26.287Z,13.73
2018-05-03T07:21:56.500Z,12.10
2018-05-03T07:24:26.742Z,13.30
2018-05-03T07:26:56.965Z,13.95
2018-05-03T07:29:27.228Z,12.60
2018-05-03T07:31:57.700Z,12.02
2018-05-03T07:34:27.911Z,13.48
2018-05-03T07:36:58.214Z,12.15
2018-05-03T07:39:28.426Z,12.70
2018-05-03T07:41:58.669Z,12.18
2018-05-03T07:44:29.308Z,12.60
2018-05-03T07:46:59.533Z,13.05
2018-05-03T07:49:29.790Z,12.23
2018-05-03T07:52:00.016Z,11.73
2018-05-03T07:54:30.280Z,11.82
2018-05-03T07:57:00.503Z,11.70
2018-05-03T07:59:30.735Z,12.07
2018-05-03T08:02:00.976Z,12.05
2018-05-03T08:04:31.396Z,11.27
2018-05-03T08:07:01.665Z,11.43
2018-05-03T08:09:31.882Z,11.12
2018-05-03T08:12:02.135Z,10.63
2018-05-03T08:14:32.578Z,11.43
2018-05-03T08:17:02.919Z,11.40
2018-05-03T08:19:33.298Z,10.90
2018-05-03T08:22:03.541Z,11.43
2018-05-03T08:24:33.532Z,11.73
2018-05-03T08:27:03.759Z,10.30
2018-05-03T08:29:34.016Z,11.43
2018-05-03T08:32:04.223Z,11.60
2018-05-03T08:34:34.203Z,11.30
2018-05-03T08:37:04.465Z,11.30
2018-05-03T08:39:34.679Z,10.82
2018-05-03T08:42:04.587Z,11.10
2018-05-03T08:44:34.813Z,11.52
2018-05-03T08:47:05.030Z,10.48
2018-05-03T08:49:35.297Z,10.55
2018-05-03T08:52:04.984Z,10.20
2018-05-03T08:54:35.213Z,10.88
2018-05-03T08:57:05.216Z,11.05
2018-05-03T08:59:35.440Z,10.45
2018-05-03T09:02:05.513Z,10.38
2018-05-03T09:04:35.733Z,10.43
2018-05-03T09:07:05.741Z,10.25
2018-05-03T09:09:36.093Z,10.55
2018-05-03T09:12:06.305Z,9.93
2018-05-03T09:14:36.564Z,10.55
2018-05-03T09:17:06.781Z,10.80
2018-05-03T09:19:37.039Z,9.52
2018-05-03T09:22:07.340Z,9.35
2018-05-03T09:24:37.573Z,9.30
2018-05-03T09:27:07.565Z,10.10
2018-05-03T09:29:37.773Z,9.20
2018-05-03T09:32:08.053Z,9.63
2018-05-03T09:34:38.256Z,9.20
2018-05-03T09:37:08.149Z,8.98
2018-05-03T09:39:39.483Z,8.50
2018-05-03T09:42:09.692Z,7.45
2018-05-03T09:44:39.943Z,8.82
2018-05-03T09:47:10.155Z,9.35
2018-05-03T09:49:40.398Z,8.00
2018-05-03T09:52:10.598Z,8.35
2018-05-03T09:54:40.556Z,8.75
2018-05-03T09:57:10.758Z,8.00
2018-05-03T09:59:40.960Z,8.40
2018-05-03T10:02:11.208Z,8.75
2018-05-03T10:04:41.428Z,8.68
2018-05-03T10:07:11.675Z,9.07
2018-05-03T10:09:41.902Z,8.57
2018-05-03T10:12:12.128Z,8.27
2018-05-03T10:14:42.405Z,7.75
2018-05-03T10:17:12.831Z,8.02
2018-05-03T10:19:43.090Z,7.40
2018-05-03T10:22:13.308Z,7.00
2018-05-03T10:24:43.549Z,7.25
2018-05-03T10:27:13.770Z,7.10
2018-05-03T10:29:43.376Z,7.05
2018-05-03T10:32:13.658Z,6.80
2018-05-03T10:34:43.962Z,7.00
2018-05-03T10:37:14.229Z,7.10
2018-05-03T10:39:44.696Z,6.90
2018-05-03T10:42:14.660Z,6.45
2018-05-03T10:44:45.098Z,10.68
2018-05-03T10:47:15.352Z,11.75
2018-05-03T10:49:45.617Z,11.05
2018-05-03T10:52:15.854Z,11.20
2018-05-03T10:54:46.318Z,11.23
2018-05-03T10:57:16.576Z,11.52
2018-05-03T10:59:46.818Z,11.05
2018-05-03T11:02:17.034Z,12.13
2018-05-03T11:04:47.280Z,12.77
2018-05-03T11:07:17.564Z,12.82
2018-05-03T11:09:47.833Z,11.73
2018-05-03T11:12:18.162Z,11.75
2018-05-03T11:14:48.444Z,14.35
2018-05-03T11:17:18.711Z,12.35
2018-05-03T11:19:48.922Z,12.18
2018-05-03T11:22:19.141Z,11.73
2018-05-03T11:24:49.407Z,18.35
2018-05-03T11:27:19.674Z,15.10
2018-05-03T11:29:49.985Z,12.75
2018-05-03T11:32:20.691Z,12.50
2018-05-03T11:34:50.920Z,11.75
2018-05-03T11:37:21.265Z,13.50
2018-05-03T11:39:51.494Z,13.25
2018-05-03T11:42:21.738Z,12.50
2018-05-03T11:44:51.960Z,11.60
2018-05-03T11:47:22.174Z,10.88
2018-05-03T11:49:52.484Z,10.70
2018-05-03T11:52:22.706Z,11.45
2018-05-03T11:54:52.934Z,10.05
2018-05-03T11:57:23.183Z,10.65
2018-05-03T11:59:53.397Z,10.23
2018-05-03T12:02:23.685Z,11.02
2018-05-03T12:04:53.879Z,9.93
2018-05-03T12:07:24.141Z,9.75
2018-05-03T12:09:54.351Z,8.43
2018-05-03T12:12:24.572Z,9.65
2018-05-03T12:14:54.772Z,8.45
2018-05-03T12:17:24.972Z,9.25
2018-05-03T12:19:55.238Z,8.02
2018-05-03T12:22:25.503Z,9.15
2018-05-03T12:24:55.736Z,9.88
2018-05-03T12:27:25.951Z,10.00
2018-05-03T12:29:56.169Z,8.95
2018-05-03T12:32:26.469Z,9.25
2018-05-03T12:34:56.765Z,8.70
2018-05-03T12:37:27.200Z,9.50
2018-05-03T12:39:57.407Z,8.50
2018-05-03T12:42:27.640Z,9.20
2018-05-03T12:44:57.839Z,9.57
2018-05-03T12:47:28.091Z,10.35
2018-05-03T12:49:58.338Z,8.88
2018-05-03T12:52:28.536Z,9.07
2018-05-03T12:54:58.771Z,8.23
2018-05-03T12:57:28.972Z,8.90
2018-05-03T13:00:00.039Z,7.65
2018-05-03T13:02:30.292Z,8.57
2018-05-03T13:05:00.517Z,7.82
2018-05-03T13:07:30.803Z,8.38
2018-05-03T13:10:01.003Z,8.77
2018-05-03T13:12:31.221Z,8.20
2018-05-03T13:15:01.478Z,8.23
2018-05-03T13:17:31.685Z,7.70
2018-05-03T13:20:01.941Z,8.23
2018-05-03T13:22:32.128Z,8.48
2018-05-03T13:25:02.431Z,8.75
2018-05-03T13:27:32.410Z,9.38
2018-05-03T13:30:02.667Z,7.95
2018-05-03T13:32:32.608Z,8.15
2018-05-03T13:35:02.817Z,7.60
2018-05-03T13:37:33.087Z,8.30
2018-05-03T13:40:03.308Z,8.52
2018-05-03T13:42:33.576Z,8.75
2018-05-03T13:45:03.559Z,8.55
2018-05-03T13:47:33.802Z,9.32
2018-05-03T13:50:04.236Z,8.00
2018-05-03T13:52:34.460Z,8.23
2018-05-03T13:55:04.347Z,9.02
2018-05-03T13:57:34.611Z,8.75
2018-05-03T14:00:04.281Z,8.65
2018-05-03T14:02:33.957Z,8.43
2018-05-03T14:05:03.907Z,9.05
2018-05-03T14:07:33.887Z,8.53
2018-05-03T14:10:04.044Z,8.45
2018-05-03T14:12:33.727Z,9.40
2018-05-03T14:15:03.387Z,10.20
2018-05-03T14:17:33.665Z,11.18
2018-05-03T14:20:03.101Z,10.73
2018-05-03T14:22:33.331Z,10.07
2018-05-03T14:25:02.975Z,9.80
2018-05-03T14:27:32.662Z,13.83
2018-05-03T14:30:02.302Z,10.13
2018-05-03T14:32:31.969Z,10.30
2018-05-03T14:35:01.597Z,15.07
2018-05-03T14:37:30.984Z,13.97
2018-05-03T14:40:00.672Z,9.47
2018-05-03T14:42:30.313Z,9.50
2018-05-03T14:44:59.952Z,10.63
2018-05-03T14:47:29.582Z,11.33
2018-05-03T14:49:59.219Z,11.37
2018-05-03T14:52:28.904Z,11.13
2018-05-03T14:54:58.541Z,11.53
2018-05-03T14:57:28.194Z,11.67
2018-05-03T14:59:57.836Z,10.83
2018-05-03T15:02:27.473Z,10.77
2018-05-03T15:04:57.132Z,10.27
2018-05-03T15:07:26.776Z,12.43
2018-05-03T15:09:56.400Z,14.30
2018-05-03T15:12:26.031Z,18.13
2018-05-03T15:14:55.377Z,22.43
2018-05-03T15:17:25.076Z,7.40
2018-05-03T15:19:54.716Z,12.77
2018-05-03T15:22:24.071Z,18.43
2018-05-03T15:24:53.700Z,20.07
2018-05-03T15:27:23.337Z,24.63
2018-05-03T15:29:53.025Z,37.83
2018-05-03T15:32:22.677Z,38.73
2018-05-03T15:34:54.012Z,32.63
2018-05-03T15:37:23.414Z,29.57
2018-05-03T15:39:53.064Z,30.00
2018-05-03T15:42:22.687Z,22.13
2018-05-03T15:44:52.306Z,24.57
2018-05-03T15:47:22.021Z,20.37
2018-05-03T15:49:51.670Z,21.20
2018-05-03T15:52:21.303Z,22.43
2018-05-03T15:54:50.946Z,18.17
2018-05-03T15:57:20.578Z,18.33
2018-05-03T15:59:50.019Z,16.07
2018-05-03T16:02:19.660Z,15.60
2018-05-03T16:04:49.310Z,15.23
2018-05-03T16:07:18.958Z,16.30
2018-05-03T16:09:48.582Z,15.27
2018-05-03T16:12:18.263Z,15.13
2018-05-03T16:14:47.972Z,14.07
2018-05-03T16:17:17.638Z,14.60
2018-05-03T16:19:47.280Z,13.10
2018-05-03T16:22:16.930Z,13.30
2018-05-03T16:24:46.659Z,13.57
2018-05-03T16:27:16.109Z,12.87
2018-05-03T16:29:45.982Z,11.67
2018-05-03T16:32:15.620Z,11.40
2018-05-03T16:34:45.301Z,10.23
2018-05-03T16:37:14.976Z,9.90
2018-05-03T16:39:44.619Z,9.47
2018-05-03T16:42:14.281Z,8.73
2018-05-03T16:44:43.913Z,9.30
2018-05-03T16:47:13.557Z,9.50
2018-05-03T16:49:43.230Z,8.80
2018-05-03T16:52:12.877Z,11.07
2018-05-03T16:54:42.506Z,12.50
2018-05-03T16:57:12.149Z,11.13
2018-05-03T16:59:41.786Z,12.63
2018-05-03T17:02:11.486Z,12.20
2018-05-03T17:04:41.177Z,11.37
2018-05-03T17:07:10.821Z,12.23
2018-05-03T17:09:40.461Z,12.87
2018-05-03T17:12:10.097Z,14.07
2018-05-03T17:14:39.866Z,13.20
2018-05-03T17:17:09.488Z,14.33
2018-05-03T17:19:39.153Z,14.13
2018-05-03T17:22:08.797Z,14.33
2018-05-03T17:24:38.457Z,13.13
2018-05-03T17:27:08.130Z,13.90
2018-05-03T17:29:37.750Z,13.87
2018-05-03T17:32:07.392Z,14.93
2018-05-03T17:34:37.043Z,14.73
2018-05-03T17:37:06.698Z,17.23
2018-05-03T17:39:36.139Z,16.73
2018-05-03T17:42:05.642Z,15.23
2018-05-03T17:44:35.292Z,18.83
2018-05-03T17:47:04.944Z,16.40
2018-05-03T17:49:34.576Z,18.30
2018-05-03T17:52:04.271Z,19.80
2018-05-03T17:54:33.912Z,18.47
2018-05-03T17:57:03.563Z,18.97
2018-05-03T17:59:33.214Z,17.47
2018-05-03T18:02:02.861Z,18.77
2018-05-03T18:04:32.542Z,18.70
2018-05-03T18:07:02.196Z,19.83
2018-05-03T18:09:31.837Z,20.73
2018-05-03T18:12:01.504Z,21.80
2018-05-03T18:14:31.144Z,20.53
2018-05-03T18:17:00.822Z,20.83
2018-05-03T18:19:30.529Z,20.97
2018-05-03T18:22:00.199Z,22.33
2018-05-03T18:24:29.885Z,22.57
2018-05-03T18:26:59.529Z,22.83
2018-05-03T18:29:28.981Z,25.40
2018-05-03T18:31:58.637Z,23.93
2018-05-03T18:34:28.288Z,24.63
2018-05-03T18:36:57.938Z,24.43
2018-05-03T18:39:27.558Z,25.37
2018-05-03T18:41:57.223Z,23.97
2018-05-03T18:44:26.871Z,24.93
2018-05-03T18:46:56.375Z,25.30
2018-05-03T18:49:26.026Z,26.93
2018-05-03T18:51:55.860Z,27.07
2018-05-03T18:54:25.318Z,26.60
2018-05-03T18:56:54.942Z,26.03
2018-05-03T18:59:24.601Z,25.63
2018-05-03T19:01:54.218Z,24.83
2018-05-03T19:04:23.862Z,24.53
2018-05-03T19:06:53.535Z,25.23
2018-05-03T19:09:23.172Z,26.27
2018-05-03T19:11:52.844Z,25.70
2018-05-03T19:14:22.711Z,25.53
2018-05-03T19:16:52.338Z,26.47
2018-05-03T19:19:22.015Z,28.93
2018-05-03T19:21:51.665Z,27.37
2018-05-03T19:24:21.066Z,28.23
2018-05-03T19:26:50.715Z,25.93
2018-05-03T19:29:20.442Z,27.80
2018-05-03T19:31:50.264Z,27.63
2018-05-03T19:34:19.920Z,25.93
2018-05-03T19:36:49.599Z,26.13
2018-05-03T19:39:19.237Z,26.57
2018-05-03T19:41:48.870Z,28.53
2018-05-03T19:44:18.491Z,27.80
2018-05-03T19:46:48.114Z,26.27
2018-05-03T19:49:17.743Z,26.97
2018-05-03T19:51:47.384Z,26.63
2018-05-03T19:54:17.056Z,25.80
2018-05-03T19:56:46.688Z,26.03
2018-05-03T19:59:16.378Z,25.07
2018-05-03T20:01:46.049Z,26.20
2018-05-03T20:04:15.689Z,24.67
2018-05-03T20:06:45.318Z,25.43
2018-05-03T20:09:14.958Z,24.53
2018-05-03T20:11:44.583Z,25.10
2018-05-03T20:14:14.248Z,25.13
2018-05-03T20:16:43.931Z,26.17
2018-05-03T20:19:13.563Z,25.73
2018-05-03T20:21:43.195Z,26.53
2018-05-03T20:24:12.837Z,26.03
2018-05-03T20:26:42.483Z,26.30
2018-05-03T20:29:12.136Z,26.60
2018-05-03T20:31:41.775Z,26.03
2018-05-03T20:34:11.455Z,24.37
2018-05-03T20:36:41.098Z,24.30
2018-05-03T20:39:10.739Z,24.87
2018-05-03T20:41:40.376Z,24.90
2018-05-03T20:44:10.000Z,24.90
2018-05-03T20:46:39.645Z,25.90
2018-05-03T20:49:09.279Z,27.40
2018-05-03T20:51:38.902Z,26.43
2018-05-03T20:54:08.572Z,27.60
2018-05-03T20:56:39.052Z,27.50
2018-05-03T20:59:08.868Z,26.47
2018-05-03T21:01:38.530Z,26.37
2018-05-03T21:04:08.156Z,25.90
2018-05-03T21:06:37.808Z,25.93
2018-05-03T21:09:07.435Z,27.40
2018-05-03T21:11:36.902Z,27.20
2018-05-03T21:14:06.570Z,25.63
2018-05-03T21:16:36.236Z,26.30
2018-05-03T21:19:05.887Z,24.10
2018-05-03T21:21:35.530Z,23.97
2018-05-03T21:24:05.159Z,23.17
2018-05-03T21:26:34.845Z,22.83
2018-05-03T21:29:04.475Z,21.93
2018-05-03T21:31:34.135Z,23.57
2018-05-03T21:34:03.801Z,23.17
2018-05-03T21:36:33.225Z,21.53
2018-05-03T21:39:02.861Z,20.53
2018-05-03T21:41:32.520Z,21.03
2018-05-03T21:44:02.178Z,21.03
2018-05-03T21:46:31.876Z,20.57
2018-05-03T21:49:01.521Z,19.73
2018-05-03T21:51:31.220Z,18.93
2018-05-03T21:54:00.859Z,18.83
2018-05-03T21:56:30.488Z,17.50
2018-05-03T21:59:00.138Z,17.27
2018-05-03T22:01:29.805Z,17.83
2018-05-03T22:03:59.341Z,14.80
2018-05-03T22:06:29.142Z,14.23
2018-05-03T22:08:58.791Z,13.93
2018-05-03T22:11:28.441Z,14.27
2018-05-03T22:13:58.121Z,13.00
2018-05-03T22:16:27.674Z,12.30
2018-05-03T22:18:57.315Z,10.57
2018-05-03T22:21:26.996Z,10.47
2018-05-03T22:23:56.633Z,9.10
2018-05-03T22:26:26.287Z,8.67
2018-05-03T22:28:59.028Z,8.30
2018-05-03T22:31:32.154Z,9.03
2018-05-03T22:34:01.789Z,8.20
2018-05-03T22:36:31.441Z,8.70
2018-05-03T22:39:01.116Z,9.00
2018-05-03T22:41:30.475Z,9.10
2018-05-03T22:44:00.106Z,7.40
2018-05-03T22:46:29.747Z,7.13
2018-05-03T22:48:59.392Z,8.03
2018-05-03T22:51:29.029Z,8.03
2018-05-03T22:53:58.668Z,7.77
2018-05-03T22:56:28.345Z,7.47
2018-05-03T22:58:57.983Z,8.60
2018-05-03T23:01:28.624Z,7.60
2018-05-03T23:03:58.254Z,7.70
2018-05-03T23:06:27.878Z,8.50
2018-05-03T23:08:57.509Z,7.80
2018-05-03T23:11:27.167Z,8.87
2018-05-03T23:13:56.626Z,8.80
2018-05-03T23:16:26.249Z,8.67
2018-05-03T23:18:55.902Z,9.03
2018-05-03T23:21:25.519Z,9.73
2018-05-03T23:23:55.160Z,8.87
2018-05-03T23:26:24.790Z,9.57
2018-05-03T23:28:54.424Z,9.50
2018-05-03T23:31:24.100Z,10.60
2018-05-03T23:33:53.734Z,9.63
2018-05-03T23:36:23.999Z,10.13
2018-05-03T23:38:53.632Z,10.43
2018-05-03T23:41:23.271Z,11.17
2018-05-03T23:43:52.915Z,10.80
2018-05-03T23:46:22.545Z,10.63
2018-05-03T23:48:52.215Z,10.27
2018-05-03T23:51:21.840Z,10.03
2018-05-03T23:53:51.479Z,10.60
2018-05-03T23:56:21.120Z,10.90
2018-05-03T23:58:50.755Z,10.47
